createdAt,value
2023-01-29T00:00:21.942Z,4.01
2023-01-29T00:02:48.377Z,3.93
2023-01-29T00:05:27.117Z,4.06
2023-01-29T00:07:56.500Z,4.24
2023-01-29T00:10:24.792Z,4.13
2023-01-29T00:12:51.693Z,4.19
2023-01-29T00:15:18.639Z,4.26
2023-01-29T00:17:44.991Z,4.08
2023-01-29T00:20:11.826Z,4.25
2023-01-29T00:22:38.224Z,4.23
2023-01-29T00:25:04.933Z,3.99
2023-01-29T00:27:31.296Z,4.26
2023-01-29T00:30:12.077Z,4.25
2023-01-29T00:32:41.861Z,4.41
2023-01-29T00:35:09.327Z,4.25
2023-01-29T00:37:35.829Z,4.33
2023-01-29T00:40:02.245Z,4.30
2023-01-29T00:42:47.027Z,4.30
2023-01-29T00:45:13.789Z,4.18
2023-01-29T00:47:40.155Z,4.29
2023-01-29T00:50:10.292Z,4.40
2023-01-29T00:52:36.926Z,4.43
2023-01-29T00:55:05.674Z,4.38
2023-01-29T00:57:33.094Z,4.46
2023-01-29T00:59:59.708Z,4.39
2023-01-29T01:02:44.933Z,4.41
2023-01-29T01:05:19.515Z,4.34
2023-01-29T01:07:47.834Z,4.30
2023-01-29T01:10:22.333Z,4.19
2023-01-29T01:12:53.459Z,4.30
2023-01-29T01:15:20.685Z,4.33
2023-01-29T01:17:48.784Z,4.29
2023-01-29T01:20:15.692Z,4.33
2023-01-29T01:22:42.265Z,4.34
2023-01-29T01:25:09.167Z,4.32
2023-01-29T01:27:37.738Z,4.32
2023-01-29T01:30:04.616Z,4.32
2023-01-29T01:32:30.992Z,4.27
2023-01-29T01:34:57.440Z,4.26
2023-01-29T01:37:23.791Z,4.23
2023-01-29T01:39:50.491Z,4.35
2023-01-29T01:42:16.957Z,4.39
2023-01-29T01:44:56.852Z,4.39
2023-01-29T01:47:46.999Z,4.39
2023-01-29T01:50:24.207Z,4.21
2023-01-29T01:52:59.752Z,4.38
2023-01-29T01:55:30.136Z,4.40
2023-01-29T01:58:02.067Z,4.43
2023-01-29T02:00:28.608Z,4.46
2023-01-29T02:03:14.013Z,4.47
2023-01-29T02:06:00.282Z,4.51
2023-01-29T02:08:53.598Z,4.49
2023-01-29T02:11:20.023Z,4.52
2023-01-29T02:13:46.714Z,4.46
2023-01-29T02:16:13.102Z,4.59
2023-01-29T02:18:39.495Z,4.66
2023-01-29T02:21:25.389Z,4.65
2023-01-29T02:24:11.375Z,4.60
2023-01-29T02:26:46.785Z,4.53
2023-01-29T02:29:37.482Z,4.53
2023-01-29T02:32:23.120Z,4.51
2023-01-29T02:35:29.984Z,4.57
2023-01-29T02:38:11.445Z,4.53
2023-01-29T02:40:45.050Z,4.43
2023-01-29T02:43:41.646Z,4.50
2023-01-29T02:46:15.725Z,4.54
2023-01-29T02:49:08.068Z,4.31
2023-01-29T02:51:43.228Z,4.33
2023-01-29T02:54:20.415Z,4.56
2023-01-29T02:56:58.555Z,4.66
2023-01-29T02:59:38.221Z,4.54
2023-01-29T03:02:16.560Z,4.47
2023-01-29T03:04:49.942Z,4.59
2023-01-29T03:07:40.977Z,4.38
2023-01-29T03:10:19.100Z,4.66
2023-01-29T03:12:55.734Z,4.58
2023-01-29T03:15:30.209Z,4.53
2023-01-29T03:18:10.439Z,4.48
2023-01-29T03:20:47.957Z,4.45
2023-01-29T03:23:27.033Z,4.41
2023-01-29T03:26:17.222Z,4.47
2023-01-29T03:29:04.479Z,4.47
2023-01-29T03:31:50.773Z,4.38
2023-01-29T03:34:28.292Z,4.55
2023-01-29T03:36:58.630Z,4.48
2023-01-29T03:39:29.892Z,4.56
2023-01-29T03:42:10.036Z,4.49
2023-01-29T03:44:54.847Z,4.54
2023-01-29T03:47:36.761Z,4.51
2023-01-29T03:50:11.156Z,4.59
2023-01-29T03:52:43.117Z,4.55
2023-01-29T03:55:17.060Z,4.56
2023-01-29T03:58:04.733Z,4.39
2023-01-29T04:00:44.662Z,4.56
2023-01-29T04:03:22.403Z,4.60
2023-01-29T04:05:58.553Z,4.48
2023-01-29T04:08:28.854Z,4.55
2023-01-29T04:10:59.353Z,4.62
2023-01-29T04:13:27.077Z,4.53
2023-01-29T04:15:58.646Z,4.58
2023-01-29T04:18:25.314Z,4.55
2023-01-29T04:20:52.688Z,4.66
2023-01-29T04:23:25.320Z,4.62
2023-01-29T04:26:16.759Z,4.61
2023-01-29T04:29:03.388Z,4.73
2023-01-29T04:31:38.611Z,4.76
2023-01-29T04:34:28.786Z,4.72
2023-01-29T04:37:02.587Z,4.77
2023-01-29T04:39:43.828Z,4.70
2023-01-29T04:42:31.097Z,4.74
2023-01-29T04:45:09.318Z,4.80
2023-01-29T04:47:52.303Z,4.70
2023-01-29T04:50:28.032Z,4.71
2023-01-29T04:53:17.909Z,4.74
2023-01-29T04:55:56.852Z,4.67
2023-01-29T04:58:43.668Z,4.59
2023-01-29T05:01:14.115Z,4.76
2023-01-29T05:03:44.298Z,4.69
2023-01-29T05:06:12.190Z,4.76
2023-01-29T05:08:40.030Z,4.71
2023-01-29T05:11:07.090Z,4.74
2023-01-29T05:13:37.940Z,4.71
2023-01-29T05:16:19.028Z,4.70
2023-01-29T05:18:46.194Z,4.66
2023-01-29T05:21:12.762Z,4.64
2023-01-29T05:23:39.242Z,4.80
2023-01-29T05:26:06.079Z,4.82
2023-01-29T05:28:32.449Z,4.68
2023-01-29T05:30:59.017Z,4.64
2023-01-29T05:33:28.330Z,4.63
2023-01-29T05:35:55.742Z,4.78
2023-01-29T05:38:23.472Z,4.80
2023-01-29T05:40:50.142Z,4.83
2023-01-29T05:43:24.281Z,4.75
2023-01-29T05:45:55.328Z,4.77
2023-01-29T05:48:22.002Z,4.79
2023-01-29T05:50:48.744Z,4.69
2023-01-29T05:53:15.149Z,4.76
2023-01-29T05:55:45.739Z,4.74
2023-01-29T05:58:12.477Z,4.74
2023-01-29T06:00:41.271Z,4.68
2023-01-29T06:03:07.949Z,4.62
2023-01-29T06:05:37.927Z,4.80
2023-01-29T06:08:04.750Z,4.55
2023-01-29T06:10:31.174Z,4.54
2023-01-29T06:12:57.568Z,4.83
2023-01-29T06:15:26.290Z,4.71
2023-01-29T06:17:57.100Z,4.79
2023-01-29T06:20:24.304Z,4.80
2023-01-29T06:22:50.800Z,4.70
2023-01-29T06:25:17.271Z,4.58
2023-01-29T06:27:43.669Z,4.78
2023-01-29T06:30:10.671Z,4.74
2023-01-29T06:32:37.129Z,4.78
2023-01-29T06:35:03.926Z,4.70
2023-01-29T06:37:30.418Z,4.83
2023-01-29T06:39:56.778Z,4.83
2023-01-29T06:42:27.783Z,4.79
2023-01-29T06:44:55.412Z,4.65
2023-01-29T06:47:21.995Z,4.70
2023-01-29T06:49:48.406Z,4.78
2023-01-29T06:52:14.802Z,4.82
2023-01-29T06:54:41.368Z,4.85
2023-01-29T06:57:07.731Z,4.78
2023-01-29T06:59:34.404Z,4.78
2023-01-29T07:02:00.827Z,4.78
2023-01-29T07:04:27.222Z,4.82
2023-01-29T07:06:53.590Z,4.81
2023-01-29T07:09:19.964Z,4.66
2023-01-29T07:11:46.491Z,4.62
2023-01-29T07:14:12.853Z,4.75
2023-01-29T07:16:39.235Z,4.73
2023-01-29T07:19:05.675Z,4.75
2023-01-29T07:21:32.063Z,4.80
2023-01-29T07:23:58.516Z,4.76
2023-01-29T07:26:25.031Z,4.75
2023-01-29T07:28:51.417Z,4.76
2023-01-29T07:31:17.941Z,4.78
2023-01-29T07:33:44.567Z,4.69
2023-01-29T07:36:12.129Z,4.89
2023-01-29T07:38:38.577Z,4.85
2023-01-29T07:41:05.198Z,4.74
2023-01-29T07:43:31.763Z,4.84
2023-01-29T07:46:03.083Z,5.11
2023-01-29T07:48:29.742Z,5.00
2023-01-29T07:50:56.991Z,4.86
2023-01-29T07:53:23.404Z,4.97
2023-01-29T07:55:49.920Z,5.21
2023-01-29T07:58:16.354Z,5.06
2023-01-29T08:00:43.680Z,5.01
2023-01-29T08:03:18.586Z,4.78
2023-01-29T08:05:45.605Z,4.96
2023-01-29T08:08:12.555Z,5.06
2023-01-29T08:10:40.173Z,5.07
2023-01-29T08:13:07.795Z,5.03
2023-01-29T08:15:36.001Z,5.09
2023-01-29T08:18:04.390Z,5.10
2023-01-29T08:20:30.773Z,4.98
2023-01-29T08:23:05.851Z,5.04
2023-01-29T08:25:32.982Z,5.09
2023-01-29T08:28:00.133Z,5.06
2023-01-29T08:30:28.506Z,5.13
2023-01-29T08:32:54.898Z,5.06
2023-01-29T08:35:21.717Z,5.14
2023-01-29T08:37:56.017Z,5.24
2023-01-29T08:40:22.648Z,5.11
2023-01-29T08:42:49.247Z,5.27
2023-01-29T08:45:15.940Z,5.23
2023-01-29T08:47:49.849Z,5.52
2023-01-29T08:50:17.938Z,5.48
2023-01-29T08:52:45.742Z,5.06
2023-01-29T08:55:13.002Z,5.53
2023-01-29T08:57:39.571Z,5.35
2023-01-29T09:00:07.702Z,5.41
2023-01-29T09:02:34.152Z,5.35
2023-01-29T09:05:00.617Z,5.52
2023-01-29T09:07:27.003Z,5.39
2023-01-29T09:09:53.343Z,5.72
2023-01-29T09:12:19.741Z,5.54
2023-01-29T09:14:46.079Z,5.85
2023-01-29T09:17:12.457Z,5.81
2023-01-29T09:19:38.862Z,5.93
2023-01-29T09:22:05.191Z,6.05
2023-01-29T09:24:32.618Z,6.37
2023-01-29T09:26:59.011Z,6.58
2023-01-29T09:29:25.416Z,6.23
2023-01-29T09:31:51.909Z,6.15
2023-01-29T09:34:18.320Z,5.98
2023-01-29T09:36:44.786Z,5.96
2023-01-29T09:39:11.205Z,6.00
2023-01-29T09:42:16.095Z,6.30
2023-01-29T09:44:57.550Z,6.36
2023-01-29T09:47:26.613Z,6.38
2023-01-29T09:49:58.329Z,6.25
2023-01-29T09:52:35.038Z,6.40
2023-01-29T09:55:12.366Z,6.42
2023-01-29T09:57:49.320Z,6.34
2023-01-29T10:00:25.199Z,6.38
2023-01-29T10:03:18.903Z,6.38
2023-01-29T10:06:09.563Z,6.39
2023-01-29T10:09:13.653Z,6.16
2023-01-29T10:12:01.167Z,5.88
2023-01-29T10:14:37.707Z,5.99
2023-01-29T10:17:38.237Z,6.00
2023-01-29T10:20:27.834Z,5.61
2023-01-29T10:23:10.570Z,5.53
2023-01-29T10:25:41.645Z,5.78
2023-01-29T10:28:18.613Z,5.83
2023-01-29T10:30:49.402Z,5.71
2023-01-29T10:33:49.364Z,5.81
2023-01-29T10:36:33.211Z,5.59
2023-01-29T10:38:59.636Z,5.60
2023-01-29T10:41:53.974Z,5.94
2023-01-29T10:44:44.121Z,5.98
2023-01-29T10:47:30.586Z,6.02
2023-01-29T10:50:09.560Z,5.98
2023-01-29T10:53:15.150Z,5.93
2023-01-29T10:55:44.537Z,5.94
2023-01-29T10:58:41.793Z,6.01
2023-01-29T11:01:10.044Z,6.13
2023-01-29T11:03:36.964Z,6.21
2023-01-29T11:06:25.254Z,6.17
2023-01-29T11:09:23.858Z,6.20
2023-01-29T11:12:05.766Z,6.08
2023-01-29T11:14:56.545Z,6.08
2023-01-29T11:17:25.822Z,5.88
2023-01-29T11:19:55.680Z,5.85
2023-01-29T11:22:27.388Z,5.97
2023-01-29T11:25:32.461Z,6.14
2023-01-29T11:28:01.825Z,6.17
2023-01-29T11:30:48.489Z,5.96
2023-01-29T11:33:21.734Z,5.79
2023-01-29T11:35:48.106Z,5.84
2023-01-29T11:38:28.035Z,6.15
2023-01-29T11:41:06.758Z,6.16
2023-01-29T11:43:33.833Z,6.10
2023-01-29T11:46:06.745Z,6.12
2023-01-29T11:48:41.856Z,5.91
2023-01-29T11:51:11.428Z,5.93
2023-01-29T11:53:41.981Z,5.87
2023-01-29T11:56:26.875Z,5.98
2023-01-29T11:58:57.476Z,6.02
2023-01-29T12:01:34.549Z,6.08
2023-01-29T12:04:01.648Z,5.64
2023-01-29T12:06:42.624Z,5.87
2023-01-29T12:09:17.330Z,5.81
2023-01-29T12:11:43.906Z,5.53
2023-01-29T12:14:34.075Z,5.72
2023-01-29T12:17:11.856Z,5.73
2023-01-29T12:19:53.618Z,5.87
2023-01-29T12:22:51.623Z,5.88
2023-01-29T12:25:30.645Z,5.73
2023-01-29T12:28:11.966Z,6.06
2023-01-29T12:30:57.195Z,6.16
2023-01-29T12:33:41.663Z,6.12
2023-01-29T12:36:21.518Z,6.11
2023-01-29T12:38:47.938Z,6.19
2023-01-29T12:41:41.423Z,6.23
2023-01-29T12:44:16.961Z,6.23
2023-01-29T12:46:50.446Z,6.26
2023-01-29T12:49:24.771Z,6.04
2023-01-29T12:52:03.058Z,6.08
2023-01-29T12:54:42.245Z,5.85
2023-01-29T12:57:31.283Z,5.95
2023-01-29T13:00:29.349Z,6.03
2023-01-29T13:03:08.352Z,6.23
2023-01-29T13:05:46.941Z,6.02
2023-01-29T13:08:21.782Z,6.21
2023-01-29T13:10:52.142Z,6.19
2023-01-29T13:13:36.801Z,6.29
2023-01-29T13:16:07.489Z,6.07
2023-01-29T13:18:50.692Z,6.34
2023-01-29T13:21:47.299Z,6.42
2023-01-29T13:24:20.119Z,6.49
2023-01-29T13:26:48.228Z,6.34
2023-01-29T13:29:26.490Z,6.22
2023-01-29T13:31:55.647Z,6.27
2023-01-29T13:34:21.964Z,6.37
2023-01-29T13:37:00.547Z,6.34
2023-01-29T13:39:32.896Z,6.44
2023-01-29T13:42:01.078Z,6.18
2023-01-29T13:44:35.807Z,6.53
2023-01-29T13:47:22.202Z,6.63
2023-01-29T13:50:23.841Z,6.68
2023-01-29T13:52:59.740Z,6.56
2023-01-29T13:55:34.855Z,6.30
2023-01-29T13:58:03.179Z,6.34
2023-01-29T14:00:35.357Z,6.51
2023-01-29T14:03:01.670Z,6.41
2023-01-29T14:05:31.191Z,6.42
2023-01-29T14:08:01.145Z,6.46
2023-01-29T14:10:29.659Z,6.21
2023-01-29T14:13:19.065Z,6.33
2023-01-29T14:15:46.539Z,6.30
2023-01-29T14:18:25.034Z,6.29
2023-01-29T14:20:53.299Z,6.23
2023-01-29T14:23:29.639Z,6.21
2023-01-29T14:25:56.950Z,5.99
2023-01-29T14:28:26.550Z,6.13
2023-01-29T14:30:53.377Z,6.11
2023-01-29T14:33:33.850Z,6.06
2023-01-29T14:36:05.839Z,5.82
2023-01-29T14:38:33.436Z,5.82
2023-01-29T14:41:15.864Z,5.97
2023-01-29T14:43:42.401Z,5.88
2023-01-29T14:46:33.583Z,5.90
2023-01-29T14:49:00.404Z,5.75
2023-01-29T14:51:32.434Z,5.86
2023-01-29T14:54:02.107Z,5.86
2023-01-29T14:56:35.480Z,5.77
2023-01-29T14:59:15.452Z,5.71
2023-01-29T15:01:48.498Z,5.52
2023-01-29T15:04:26.434Z,5.61
2023-01-29T15:07:04.193Z,5.61
2023-01-29T15:09:46.510Z,5.57
2023-01-29T15:12:25.381Z,5.60
2023-01-29T15:15:15.573Z,5.46
2023-01-29T15:17:59.244Z,5.36
2023-01-29T15:20:28.464Z,5.42
2023-01-29T15:22:54.884Z,5.24
2023-01-29T15:25:21.629Z,5.17
2023-01-29T15:27:48.913Z,5.26
2023-01-29T15:30:22.900Z,5.27
2023-01-29T15:32:49.728Z,5.20
2023-01-29T15:35:19.450Z,5.14
2023-01-29T15:37:59.255Z,5.05
2023-01-29T15:40:26.951Z,4.99
2023-01-29T15:42:53.366Z,5.10
2023-01-29T15:45:31.288Z,5.19
2023-01-29T15:48:05.551Z,4.96
2023-01-29T15:50:34.602Z,5.22
2023-01-29T15:53:06.809Z,4.86
2023-01-29T15:55:35.033Z,5.13
2023-01-29T15:58:01.748Z,4.98
2023-01-29T16:00:29.690Z,5.08
2023-01-29T16:02:57.523Z,4.99
2023-01-29T16:05:28.303Z,5.17
2023-01-29T16:07:55.792Z,5.20
2023-01-29T16:10:28.545Z,5.24
2023-01-29T16:12:55.849Z,4.87
2023-01-29T16:15:38.455Z,5.07
2023-01-29T16:18:21.075Z,4.84
2023-01-29T16:20:52.401Z,5.14
2023-01-29T16:23:22.331Z,5.21
2023-01-29T16:25:49.757Z,5.18
2023-01-29T16:28:17.150Z,5.17
2023-01-29T16:30:43.758Z,4.88
2023-01-29T16:33:16.987Z,5.17
2023-01-29T16:35:51.760Z,5.23
2023-01-29T16:38:35.074Z,5.01
2023-01-29T16:41:12.120Z,5.12
2023-01-29T16:43:51.033Z,5.18
2023-01-29T16:46:24.730Z,5.27
2023-01-29T16:48:52.194Z,5.17
2023-01-29T16:51:25.888Z,5.23
2023-01-29T16:53:57.644Z,5.14
2023-01-29T16:56:27.499Z,5.15
2023-01-29T16:58:55.329Z,5.21
2023-01-29T17:01:24.831Z,5.08
2023-01-29T17:04:13.871Z,5.07
2023-01-29T17:06:43.425Z,5.11
2023-01-29T17:09:22.103Z,5.17
2023-01-29T17:11:57.462Z,5.23
2023-01-29T17:14:25.935Z,5.23
2023-01-29T17:17:02.112Z,5.15
2023-01-29T17:19:30.132Z,5.17
2023-01-29T17:21:58.386Z,5.13
2023-01-29T17:24:27.993Z,5.07
2023-01-29T17:26:54.440Z,5.10
2023-01-29T17:29:25.494Z,5.04
2023-01-29T17:31:51.960Z,5.06
2023-01-29T17:34:18.641Z,5.11
2023-01-29T17:36:45.820Z,4.92
2023-01-29T17:39:21.310Z,5.05
2023-01-29T17:41:51.820Z,5.04
2023-01-29T17:44:18.592Z,4.89
2023-01-29T17:46:46.172Z,5.03
2023-01-29T17:49:23.451Z,5.10
2023-01-29T17:51:50.933Z,5.10
2023-01-29T17:54:17.419Z,5.04
2023-01-29T17:56:43.824Z,4.75
2023-01-29T17:59:36.334Z,5.01
2023-01-29T18:02:02.761Z,5.05
2023-01-29T18:04:29.186Z,5.05
2023-01-29T18:06:57.108Z,4.96
2023-01-29T18:09:23.543Z,4.88
2023-01-29T18:11:50.883Z,4.92
2023-01-29T18:14:17.569Z,5.06
2023-01-29T18:16:45.126Z,5.06
2023-01-29T18:19:23.026Z,5.10
2023-01-29T18:21:50.311Z,5.08
2023-01-29T18:24:16.699Z,5.02
2023-01-29T18:26:43.147Z,5.07
2023-01-29T18:29:09.597Z,5.05
2023-01-29T18:31:36.173Z,5.16
2023-01-29T18:34:02.641Z,5.06
2023-01-29T18:36:30.279Z,5.09
2023-01-29T18:38:57.976Z,4.86
2023-01-29T18:41:24.426Z,4.92
2023-01-29T18:43:52.705Z,4.84
2023-01-29T18:46:19.966Z,4.94
2023-01-29T18:48:46.398Z,4.99
2023-01-29T18:51:12.856Z,4.83
2023-01-29T18:53:39.251Z,5.02
2023-01-29T18:56:06.634Z,4.99
2023-01-29T18:58:37.163Z,4.84
2023-01-29T19:01:10.774Z,4.92
2023-01-29T19:03:41.195Z,4.99
2023-01-29T19:06:10.003Z,5.03
2023-01-29T19:08:36.661Z,5.07
2023-01-29T19:11:05.499Z,5.12
2023-01-29T19:13:32.813Z,4.89
2023-01-29T19:15:59.266Z,4.74
2023-01-29T19:18:26.678Z,4.85
2023-01-29T19:20:53.869Z,5.06
2023-01-29T19:23:20.833Z,4.80
2023-01-29T19:25:47.617Z,5.06
2023-01-29T19:28:14.535Z,4.97
2023-01-29T19:30:41.012Z,4.78
2023-01-29T19:33:08.910Z,5.03
2023-01-29T19:35:35.323Z,5.05
2023-01-29T19:38:01.828Z,5.14
2023-01-29T19:40:28.214Z,5.02
2023-01-29T19:42:58.617Z,4.99
2023-01-29T19:45:38.604Z,4.98
2023-01-29T19:48:14.357Z,4.74
2023-01-29T19:50:40.732Z,4.85
2023-01-29T19:53:07.120Z,4.71
2023-01-29T19:55:33.507Z,4.86
2023-01-29T19:57:59.942Z,5.01
2023-01-29T20:00:26.376Z,5.00
2023-01-29T20:02:52.867Z,5.07
2023-01-29T20:05:20.271Z,5.14
2023-01-29T20:07:47.245Z,5.10
2023-01-29T20:10:17.262Z,5.10
2023-01-29T20:12:45.036Z,5.11
2023-01-29T20:15:12.858Z,5.19
2023-01-29T20:17:39.324Z,5.20
2023-01-29T20:20:06.847Z,5.25
2023-01-29T20:22:33.292Z,5.39
2023-01-29T20:24:59.759Z,5.35
2023-01-29T20:27:26.136Z,5.27
2023-01-29T20:29:52.695Z,5.43
2023-01-29T20:32:19.364Z,5.52
2023-01-29T20:34:49.564Z,5.51
2023-01-29T20:37:16.043Z,5.47
2023-01-29T20:39:42.404Z,5.47
2023-01-29T20:42:08.785Z,5.48
2023-01-29T20:44:35.147Z,5.56
2023-01-29T20:47:02.562Z,5.63
2023-01-29T20:49:29.074Z,5.71
2023-01-29T20:51:55.667Z,5.56
2023-01-29T20:54:22.196Z,5.67
2023-01-29T20:56:49.018Z,5.71
2023-01-29T20:59:15.648Z,5.67
2023-01-29T21:01:43.117Z,5.69
2023-01-29T21:04:09.569Z,5.59
2023-01-29T21:06:36.088Z,5.52
2023-01-29T21:09:02.593Z,5.66
2023-01-29T21:11:29.212Z,5.76
2023-01-29T21:13:57.777Z,5.75
2023-01-29T21:16:26.076Z,5.74
2023-01-29T21:18:55.767Z,5.81
2023-01-29T21:21:22.139Z,5.82
2023-01-29T21:23:48.957Z,5.83
2023-01-29T21:26:15.355Z,5.86
2023-01-29T21:28:41.721Z,5.90
2023-01-29T21:31:14.401Z,5.76
2023-01-29T21:33:40.850Z,5.90
2023-01-29T21:36:08.386Z,5.88
2023-01-29T21:38:34.766Z,5.90
2023-01-29T21:41:07.040Z,5.90
2023-01-29T21:43:33.459Z,5.84
2023-01-29T21:46:04.825Z,5.85
2023-01-29T21:48:31.403Z,5.82
2023-01-29T21:50:57.766Z,5.75
2023-01-29T21:53:24.162Z,5.86
2023-01-29T21:55:50.571Z,5.83
2023-01-29T21:58:16.927Z,5.88
2023-01-29T22:00:43.283Z,5.84
2023-01-29T22:03:10.075Z,5.88
2023-01-29T22:05:36.427Z,5.83
2023-01-29T22:08:04.737Z,5.92
2023-01-29T22:10:33.231Z,5.89
2023-01-29T22:13:00.983Z,5.89
2023-01-29T22:15:27.372Z,5.95
2023-01-29T22:17:53.936Z,5.70
2023-01-29T22:20:20.657Z,6.01
2023-01-29T22:22:47.381Z,5.82
2023-01-29T22:25:13.845Z,6.10
2023-01-29T22:27:40.284Z,5.95
2023-01-29T22:30:07.410Z,5.91
2023-01-29T22:32:33.905Z,5.80
2023-01-29T22:35:00.385Z,5.96
2023-01-29T22:37:26.816Z,5.73
2023-01-29T22:39:53.227Z,5.94
2023-01-29T22:42:20.565Z,6.02
2023-01-29T22:44:48.123Z,5.94
2023-01-29T22:47:14.537Z,5.98
2023-01-29T22:49:41.503Z,6.03
2023-01-29T22:52:10.891Z,5.97
2023-01-29T22:54:39.142Z,6.01
2023-01-29T22:57:06.295Z,5.99
2023-01-29T22:59:33.298Z,5.78
2023-01-29T23:01:59.922Z,5.98
2023-01-29T23:04:26.586Z,5.82
2023-01-29T23:06:53.040Z,6.02
2023-01-29T23:09:19.520Z,6.14
2023-01-29T23:11:46.029Z,6.28
2023-01-29T23:14:12.400Z,6.28
2023-01-29T23:16:38.803Z,6.31
2023-01-29T23:19:05.421Z,6.33
2023-01-29T23:21:31.878Z,6.46
2023-01-29T23:23:59.332Z,6.51
2023-01-29T23:26:44.720Z,6.42
2023-01-29T23:29:11.189Z,6.52
2023-01-29T23:31:37.859Z,6.49
2023-01-29T23:34:04.717Z,6.32
2023-01-29T23:36:32.203Z,6.45
2023-01-29T23:38:58.560Z,6.53
2023-01-29T23:41:24.977Z,6.55
2023-01-29T23:43:52.794Z,6.57
2023-01-29T23:46:19.228Z,6.47
2023-01-29T23:48:45.617Z,6.61
2023-01-29T23:51:12.105Z,6.57
2023-01-29T23:53:38.782Z,6.60
2023-01-29T23:56:06.069Z,6.60
2023-01-29T23:58:33.191Z,6.68
